Weather History for KBVN - February, 2014

Change the Weather History Date:

Wednesday, February 12, 2014

  Actual Average (KOFK) Record (KOFK)
Temperature  
Mean Temperature 26 °F 26 °F  
Max Temperature 31 °F 36 °F 59 °F (1990)
Min Temperature 20 °F 16 °F -30 °F (1899)
Degree Days  
Heating Degree Days 40 39  
Month to date heating degree days 484  
Since 1 July heating degree days 4506  
Cooling Degree Days 0 0  
Month to date cooling degree days 0  
Year to date cooling degree days 0  
Moisture  
Dew Point 19 °F    
Average Humidity 75    
Maximum Humidity 86    
Minimum Humidity 57    
Precipitation  
Precipitation 0.00 in 0.03 in 0.82 in (2005)
Month to date precipitation 0.30  
Year to date precipitation 0.89  
Snow  
Snow 0.00 in 0.20 in - ()
Month to date snowfall 2.6  
Since 1 July snowfall 19.9  
Snow Depth -    
Sea Level Pressure  
Sea Level Pressure 29.96 in    
Wind  
Wind Speed 10 mph (WSW)    
Max Wind Speed 25 mph    
Max Gust Speed 32 mph    
Visibility 10 miles    
Events Snow    
T = Trace of Precipitation, MM = Missing Value Source: NWS Daily Summary

Daily Weather History Graph

Daily Weather History Graph

Search for Another Location

Airport or City:

Trip Planner

Search our weather history database for the weather conditions in past years. The results will help you decide how hot, cold, wet, or windy it might be!

Date:

Astronomy

Feb. 12, 2014 Rise Set
Actual Time 7:31 AM CST 6:01 PM CST
Civil Twilight 7:02 AM CST 6:30 PM CST
Nautical Twilight 6:30 AM CST 7:03 PM CST
Astronomical Twilight 5:57 AM CST 7:35 PM CST
Moon 4:16 PM CST (2/12) 5:50 AM CST (2/12)
Length of Visible Light 11h 27m
Length of Day
10h 30m
Waxing Gibbous, 95% of the Moon is Illuminated
Feb 12
Waxing Gibbous
Feb 14
Full
Feb 22
Last Quarter
Mar 1
New
Mar 8
First Quarter

Hourly Weather History & Observations

Time (CST) Temp. Windchill Dew Point Humidity Pressure Visibility Wind Dir Wind Speed Gust Speed Precip Events Conditions
12:15 AM 23.9 °F 14.2 °F 18.3 °F 79% 29.94 in 10.0 mi South 9.2 mph - N/A   Overcast
12:35 AM 23.9 °F 15.0 °F 18.5 °F 80% 29.93 in 10.0 mi South 8.1 mph - N/A   Overcast
12:55 AM 24.3 °F 13.9 °F 18.7 °F 79% 29.93 in 10.0 mi South 10.4 mph - N/A   Overcast
1:15 AM 24.6 °F 15.8 °F 19.0 °F 79% 29.95 in 10.0 mi SSW 8.1 mph - N/A   Overcast
1:35 AM 24.8 °F 17.9 °F 19.2 °F 79% 29.94 in 10.0 mi SSW 5.8 mph - N/A   Overcast
1:55 AM 24.8 °F 19.1 °F 19.4 °F 80% 29.94 in 10.0 mi WSW 4.6 mph - N/A   Overcast
2:15 AM 24.1 °F 19.7 °F 19.0 °F 81% 29.94 in 10.0 mi SW 3.5 mph - N/A   Scattered Clouds
2:35 AM 23.9 °F - 19.2 °F 82% 29.93 in 10.0 mi Calm Calm - N/A   Scattered Clouds
2:55 AM 24.6 °F 20.3 °F 19.4 °F 81% 29.94 in 10.0 mi West 3.5 mph - N/A   Mostly Cloudy
3:15 AM 24.8 °F 20.5 °F 19.8 °F 81% 29.94 in 10.0 mi West 3.5 mph - N/A   Overcast
3:35 AM 23.2 °F 18.7 °F 18.7 °F 83% 29.94 in 10.0 mi NW 3.5 mph - N/A   Overcast
3:55 AM 21.6 °F 14.0 °F 17.6 °F 85% 29.94 in 10.0 mi WNW 5.8 mph - N/A   Scattered Clouds
4:15 AM 21.9 °F 13.4 °F 18.3 °F 86% 29.95 in 10.0 mi NNW 6.9 mph - N/A   Scattered Clouds
4:35 AM 27.1 °F 15.4 °F 22.5 °F 83% 29.96 in 10.0 mi NNW 15.0 mph - N/A   Mostly Cloudy
4:55 AM 30.2 °F 18.5 °F 25.3 °F 82% 29.97 in 10.0 mi NNW 17.3 mph - N/A   Overcast
5:15 AM 31.5 °F 19.1 °F 27.0 °F 83% 29.98 in 3.0 mi NNW 20.7 mph 29.9 mph N/A Snow Light Snow
5:35 AM 30.2 °F 19.8 °F 26.2 °F 85% 29.99 in 4.0 mi North 13.8 mph 25.3 mph N/A Snow Light Snow
5:55 AM 28.9 °F 15.8 °F 25.2 °F 86% 30.01 in 1.8 mi NNW 20.7 mph 28.8 mph N/A Snow Light Snow
6:15 AM 27.9 °F 14.4 °F 22.6 °F 81% 30.03 in 7.0 mi NNW 20.7 mph 27.6 mph N/A   Mostly Cloudy
6:35 AM 26.6 °F 13.8 °F 21.6 °F 81% 30.04 in 10.0 mi North 17.3 mph 27.6 mph N/A   Mostly Cloudy
6:55 AM 25.3 °F 11.0 °F 19.4 °F 78% 30.05 in 7.0 mi NNW 20.7 mph 32.2 mph N/A   Overcast
7:15 AM 23.9 °F 10.3 °F 18.9 °F 81% 30.06 in 10.0 mi NNW 17.3 mph 25.3 mph N/A   Overcast
7:35 AM 23.9 °F 7.8 °F 19.0 °F 82% 30.08 in 10.0 mi NNW 25.3 mph 29.9 mph N/A   Overcast
7:55 AM 22.6 °F 6.8 °F 17.2 °F 80% 30.09 in 7.0 mi NNW 23.0 mph 29.9 mph N/A   Overcast
8:15 AM 22.8 °F 7.7 °F 17.6 °F 80% 30.09 in 7.0 mi NNW 20.7 mph 29.9 mph N/A   Overcast
8:35 AM 22.8 °F 8.5 °F 17.6 °F 80% 30.09 in 10.0 mi NNW 18.4 mph 25.3 mph N/A   Overcast
8:55 AM 22.6 °F 7.5 °F 17.6 °F 81% 30.11 in 10.0 mi NNW 20.7 mph 25.3 mph N/A   Overcast
9:15 AM 21.9 °F 6.5 °F 16.2 °F 78% 30.11 in 10.0 mi NNW 20.7 mph 25.3 mph N/A   Scattered Clouds
9:35 AM 21.7 °F 7.5 °F 16.2 °F 79% 30.11 in 10.0 mi NNW 17.3 mph 23.0 mph N/A   Scattered Clouds
9:55 AM 21.9 °F 8.2 °F 16.3 °F 79% 30.12 in 10.0 mi NNW 16.1 mph 21.9 mph N/A   Overcast
10:15 AM 21.0 °F 9.3 °F 15.4 °F 79% 30.12 in 10.0 mi NNW 11.5 mph 24.2 mph N/A   Overcast
10:35 AM 20.5 °F 7.4 °F 14.0 °F 76% 30.12 in 10.0 mi North 13.8 mph 19.6 mph N/A   Mostly Cloudy
10:55 AM 22.1 °F 12.0 °F 14.9 °F 74% 30.12 in 10.0 mi NNW 9.2 mph - N/A   Scattered Clouds
11:15 AM 22.3 °F 12.2 °F 14.7 °F 73% 30.11 in 10.0 mi North 9.2 mph - N/A   Scattered Clouds
11:35 AM 23.2 °F 12.0 °F 15.3 °F 72% 30.12 in 10.0 mi NW 11.5 mph - N/A   Clear
11:55 AM 23.0 °F 13.1 °F 14.7 °F 71% 30.11 in 10.0 mi NW 9.2 mph - N/A   Clear
12:15 PM 23.9 °F 13.5 °F 14.9 °F 69% 30.10 in 10.0 mi North 10.4 mph - N/A   Clear
12:35 PM 24.4 °F 14.9 °F 15.8 °F 70% 30.09 in 10.0 mi NW 9.2 mph - N/A   Clear
12:55 PM 24.6 °F 18.8 °F 14.7 °F 66% 30.08 in 10.0 mi North 4.6 mph - N/A   Clear
1:15 PM 25.7 °F 20.1 °F 15.8 °F 66% 30.05 in 10.0 mi NNW 4.6 mph - N/A   Clear
1:35 PM 26.4 °F - 15.3 °F 63% 30.05 in 10.0 mi Calm Calm - N/A   Clear
1:55 PM 27.5 °F 23.6 °F 16.3 °F 63% 30.01 in 10.0 mi NNE 3.5 mph - N/A   Clear
2:15 PM 28.0 °F - 15.8 °F 60% 30.00 in 10.0 mi Calm Calm - N/A   Clear
2:35 PM 28.8 °F 23.7 °F 16.2 °F 59% 30.00 in 10.0 mi WSW 4.6 mph - N/A   Clear
2:55 PM 28.6 °F - 15.1 °F 57% 29.99 in 10.0 mi Calm Calm - N/A   Clear
3:15 PM 29.7 °F - 16.3 °F 58% 29.97 in 10.0 mi Calm Calm - N/A   Clear
3:35 PM 29.8 °F 23.9 °F 16.2 °F 57% 29.97 in 10.0 mi South 5.8 mph - N/A   Clear
3:55 PM 29.8 °F 23.9 °F 17.2 °F 59% 29.96 in 10.0 mi SSW 5.8 mph - N/A   Clear
4:15 PM 30.2 °F 23.4 °F 17.6 °F 60% 29.93 in 10.0 mi South 6.9 mph - N/A   Clear
4:35 PM 30.6 °F 22.4 °F 18.7 °F 61% 29.92 in 10.0 mi South 9.2 mph - N/A   Clear
4:55 PM 30.7 °F 21.4 °F 19.0 °F 62% 29.89 in 10.0 mi SSE 11.5 mph - N/A   Clear
5:15 PM 30.4 °F 20.5 °F 19.4 °F 64% 29.89 in 10.0 mi South 12.7 mph - N/A   Clear
5:35 PM 29.1 °F 21.3 °F 19.2 °F 67% 29.91 in 10.0 mi SSW 8.1 mph - N/A   Clear
5:55 PM 27.7 °F 20.4 °F 19.4 °F 71% 29.92 in 10.0 mi South 6.9 mph - N/A   Clear
6:15 PM 27.5 °F 17.4 °F 19.4 °F 72% 29.92 in 10.0 mi SSW 11.5 mph - N/A   Clear
6:35 PM 27.0 °F 16.7 °F 19.2 °F 73% 29.91 in 10.0 mi SSW 11.5 mph - N/A   Clear
6:55 PM 26.2 °F 17.1 °F 19.4 °F 75% 29.91 in 10.0 mi South 9.2 mph - N/A   Clear
7:15 PM 26.2 °F 15.8 °F 19.4 °F 75% 29.87 in 10.0 mi South 11.5 mph - N/A   Clear
7:35 PM 26.4 °F 16.6 °F 19.9 °F 77% 29.87 in 10.0 mi South 10.4 mph - N/A   Clear
7:55 PM 26.6 °F 15.7 °F 20.1 °F 77% 29.86 in 10.0 mi South 12.7 mph - N/A   Clear
8:15 PM 25.7 °F 15.1 °F 20.3 °F 80% 29.86 in 10.0 mi SSE 11.5 mph - N/A   Clear
8:35 PM 25.9 °F 16.6 °F 20.8 °F 81% 29.85 in 10.0 mi SSE 9.2 mph - N/A   Scattered Clouds
8:55 PM 26.6 °F 16.2 °F 21.2 °F 80% 29.83 in 10.0 mi South 11.5 mph - N/A   Overcast
9:15 PM 27.5 °F 16.3 °F 21.6 °F 78% 29.81 in 10.0 mi South 13.8 mph - N/A   Overcast
9:35 PM 27.1 °F 16.9 °F 21.6 °F 80% 29.79 in 10.0 mi South 11.5 mph - N/A   Mostly Cloudy
9:55 PM 27.5 °F 18.0 °F 21.7 °F 79% 29.79 in 10.0 mi South 10.4 mph 16.1 mph N/A   Mostly Cloudy
10:15 PM 28.2 °F 17.2 °F 22.5 °F 79% 29.77 in 10.0 mi South 13.8 mph - N/A   Overcast
10:35 PM 28.9 °F 18.6 °F 22.8 °F 78% 29.76 in 10.0 mi South 12.7 mph - N/A   Overcast
10:55 PM 29.1 °F 17.9 °F 23.0 °F 78% 29.75 in 10.0 mi South 15.0 mph 18.4 mph N/A   Overcast
11:15 PM 28.9 °F 19.8 °F 23.0 °F 78% 29.73 in 10.0 mi South 10.4 mph - N/A   Mostly Cloudy
11:35 PM 30.0 °F 21.7 °F 23.7 °F 77% 29.72 in 10.0 mi South 9.2 mph - N/A   Mostly Cloudy
11:55 PM 30.6 °F 21.8 °F 23.9 °F 76% 29.71 in 10.0 mi South 10.4 mph - N/A   Scattered Clouds